Mardela Springs, Maryland
Current Conditions -  °F | °C
As of 4:11 AM on Thursday 23 Oct 2014 (Local Time) from KCGE Reporting Station
Overcast Overcast  
Wind Chill: 55°   Ceiling: 1300
Heat Index: 55°   Visibility: 0mi
Dew Point: 46°   Wind: 16mph
Humidity: 72%   Direction: 320°NW
Pressure: 29.8"   Gusts: 23mph
Location:  38.46°N, 75.76°W
Report Text: KCGE 230811Z AUTO 32014G20KT M1/4SM BKN013 OVC021 13/08 A2980 RMK AO1
Loading
Personal Weather Stations






























Interactive Weather Map
Tropical Storm Tracking
New forecast layout! Learn more

10-Day Weather Forecast

Advertisements
Track Severe Weather on mobile